Time;durP1;ratioP1;P1;durP2;ratioP2;P2;SDS_P1;SDS_P2;PMS_P1;PMS_P2;Temp;Humidity;BMP_temperature;BMP_pressure;BME280_temperature;BME280_humidity;BME280_pressure;Samples;Min_cycle;Max_cycle;Signal;HPM_P1;HPM_P2
2023/11/15 00:00:06;;;;;;;3.75;2.45;;;6.70;99.90;;;;;;5049124;28;20060;-57
2023/11/15 00:02:32;;;;;;;3.55;2.05;;;6.70;99.90;;;;;;5053394;28;20028;-53
2023/11/15 00:04:57;;;;;;;2.55;1.85;;;6.70;99.90;;;;;;5046813;28;20504;-58
2023/11/15 00:07:23;;;;;;;3.15;2.45;;;6.80;99.90;;;;;;5042731;28;20116;-56
2023/11/15 00:09:48;;;;;;;2.97;2.60;;;6.80;99.90;;;;;;5047505;28;20111;-55
2023/11/15 00:12:14;;;;;;;3.08;2.40;;;6.80;99.90;;;;;;5043196;28;20477;-53
2023/11/15 00:14:39;;;;;;;3.88;2.63;;;6.70;99.90;;;;;;5057226;28;20028;-56
2023/11/15 00:17:05;;;;;;;4.53;3.00;;;6.70;99.90;;;;;;5042378;28;20029;-54
2023/11/15 00:19:31;;;;;;;4.78;2.90;;;6.70;99.90;;;;;;5042150;28;20043;-53
2023/11/15 00:21:57;;;;;;;3.83;2.95;;;6.70;99.90;;;;;;5043575;28;20028;-58
2023/11/15 00:24:23;;;;;;;3.15;2.47;;;6.80;99.90;;;;;;5042856;28;20033;-53
2023/11/15 00:26:50;;;;;;;2.90;2.58;;;6.80;99.90;;;;;;5045888;28;20032;-56
2023/11/15 00:29:15;;;;;;;3.75;2.70;;;6.70;99.90;;;;;;5048325;28;20103;-57
2023/11/15 00:31:41;;;;;;;3.78;2.83;;;6.70;99.90;;;;;;5051251;28;20036;-58
2023/11/15 00:34:06;;;;;;;4.72;3.03;;;6.80;99.90;;;;;;5047153;28;20053;-58
2023/11/15 00:36:33;;;;;;;3.30;2.45;;;6.70;99.90;;;;;;5054649;28;20040;-56
2023/11/15 00:38:58;;;;;;;3.65;2.60;;;6.80;99.90;;;;;;5057180;28;20024;-58
2023/11/15 00:41:24;;;;;;;3.67;2.63;;;6.70;99.90;;;;;;5055148;28;20099;-57
2023/11/15 00:43:49;;;;;;;3.30;2.83;;;6.70;99.90;;;;;;5062007;28;20024;-57
2023/11/15 00:46:15;;;;;;;3.00;2.50;;;6.70;99.90;;;;;;5053280;28;20025;-57
2023/11/15 00:48:41;;;;;;;3.38;2.65;;;6.70;99.90;;;;;;5059303;28;20017;-57
2023/11/15 00:51:07;;;;;;;3.58;2.88;;;6.70;99.90;;;;;;5047235;28;20029;-56
2023/11/15 00:53:34;;;;;;;3.45;2.55;;;6.70;99.90;;;;;;5038921;28;20049;-57
2023/11/15 00:55:59;;;;;;;5.22;3.25;;;6.70;99.90;;;;;;5057759;28;20059;-58
2023/11/15 00:58:29;;;;;;;3.78;2.90;;;6.70;99.90;;;;;;5054975;28;20057;-58
2023/11/15 01:00:56;;;;;;;6.53;3.65;;;6.70;99.90;;;;;;5052293;28;20028;-58
2023/11/15 01:03:28;;;;;;;3.53;2.58;;;6.70;99.90;;;;;;5056366;28;20077;-57
2023/11/15 01:05:55;;;;;;;4.32;3.13;;;6.70;99.90;;;;;;5050317;28;20025;-57
2023/11/15 01:08:23;;;;;;;4.60;2.92;;;6.70;99.90;;;;;;5052337;28;20507;-57
2023/11/15 01:10:52;;;;;;;4.50;3.17;;;6.70;99.90;;;;;;5042974;28;20106;-57
2023/11/15 01:13:19;;;;;;;4.50;2.97;;;6.70;99.90;;;;;;5057384;28;20025;-55
2023/11/15 01:15:44;;;;;;;4.20;2.65;;;6.70;99.90;;;;;;5052025;28;20041;-56
2023/11/15 01:18:10;;;;;;;4.95;3.40;;;6.70;99.90;;;;;;5045922;28;20140;-57
2023/11/15 01:20:37;;;;;;;4.88;3.60;;;6.70;99.90;;;;;;5051459;28;20107;-55
2023/11/15 01:23:05;;;;;;;5.32;2.90;;;6.70;99.90;;;;;;5054462;28;20029;-55
2023/11/15 01:25:31;;;;;;;3.72;2.97;;;6.70;99.90;;;;;;5047534;28;20029;-55
2023/11/15 01:27:58;;;;;;;5.18;3.38;;;6.70;99.90;;;;;;5040841;28;20104;-54
2023/11/15 01:30:23;;;;;;;4.63;3.58;;;6.70;99.90;;;;;;5055217;28;20104;-56
2023/11/15 01:32:51;;;;;;;5.80;3.60;;;6.70;99.90;;;;;;5057056;28;20104;-57
2023/11/15 01:35:18;;;;;;;6.00;3.83;;;6.70;99.90;;;;;;5050431;28;20078;-56
2023/11/15 01:37:48;;;;;;;4.78;3.90;;;6.70;99.90;;;;;;5057899;28;20124;-57
2023/11/15 01:40:14;;;;;;;5.38;3.60;;;6.70;99.90;;;;;;5041829;28;20567;-55
2023/11/15 01:42:42;;;;;;;4.40;3.60;;;6.70;99.90;;;;;;5052367;28;20021;-53
2023/11/15 01:45:09;;;;;;;6.57;4.38;;;6.70;99.90;;;;;;5040968;28;20029;-57
2023/11/15 01:47:35;;;;;;;6.38;3.92;;;6.70;99.90;;;;;;5053710;28;20017;-54
2023/11/15 01:50:05;;;;;;;5.60;4.28;;;6.60;99.90;;;;;;5044595;28;20035;-55
2023/11/15 01:52:31;;;;;;;4.95;3.80;;;6.70;99.90;;;;;;5046498;28;20378;-56
2023/11/15 01:54:58;;;;;;;5.43;4.07;;;6.60;99.90;;;;;;5048800;28;20029;-56
2023/11/15 01:57:24;;;;;;;6.43;3.78;;;6.70;99.90;;;;;;5045451;28;20036;-57
2023/11/15 01:59:51;;;;;;;6.43;3.53;;;6.60;99.90;;;;;;5042536;28;20179;-58
2023/11/15 02:02:16;;;;;;;5.95;4.32;;;6.70;99.90;;;;;;5037749;28;20033;-55
2023/11/15 02:04:42;;;;;;;5.07;3.90;;;6.60;99.90;;;;;;5043855;28;20033;-57
2023/11/15 02:07:09;;;;;;;5.63;4.03;;;6.60;99.90;;;;;;5052280;28;20097;-56
2023/11/15 02:09:36;;;;;;;5.20;4.00;;;6.60;99.90;;;;;;5045020;28;20052;-58
2023/11/15 02:12:02;;;;;;;5.13;4.55;;;6.60;99.90;;;;;;5049011;28;20052;-56
2023/11/15 02:14:30;;;;;;;7.55;4.13;;;6.60;99.90;;;;;;5041707;28;20031;-59
2023/11/15 02:16:56;;;;;;;5.15;3.97;;;6.70;99.90;;;;;;5045698;28;20028;-56
2023/11/15 02:19:21;;;;;;;5.32;3.90;;;6.60;99.90;;;;;;5041858;28;20029;-55
2023/11/15 02:21:47;;;;;;;6.25;3.72;;;6.60;99.90;;;;;;5044619;28;20024;-56
2023/11/15 02:24:13;;;;;;;5.38;4.07;;;6.60;99.90;;;;;;5042833;28;20059;-58
2023/11/15 02:26:39;;;;;;;4.65;3.45;;;6.60;99.90;;;;;;5047809;28;20048;-56
2023/11/15 02:29:04;;;;;;;6.22;3.95;;;6.60;99.90;;;;;;5048793;28;20021;-58
2023/11/15 02:31:31;;;;;;;4.53;3.97;;;6.60;99.90;;;;;;5047152;28;20048;-53
2023/11/15 02:33:57;;;;;;;4.72;3.95;;;6.70;99.90;;;;;;5050483;28;20096;-57
2023/11/15 02:36:23;;;;;;;5.00;3.67;;;6.60;99.90;;;;;;5054588;28;20111;-56
2023/11/15 02:38:48;;;;;;;6.35;4.43;;;6.70;99.90;;;;;;5046407;28;20123;-55
2023/11/15 02:41:15;;;;;;;6.13;4.07;;;6.60;99.90;;;;;;5038455;28;20063;-57
2023/11/15 02:43:40;;;;;;;4.50;3.85;;;6.60;99.90;;;;;;5040988;28;20021;-55
2023/11/15 02:46:06;;;;;;;5.60;4.20;;;6.60;99.90;;;;;;5040157;28;20039;-53
2023/11/15 02:48:32;;;;;;;5.10;4.20;;;6.60;99.90;;;;;;5040225;28;20017;-57
2023/11/15 02:50:57;;;;;;;6.55;4.10;;;6.70;99.90;;;;;;5039905;28;20100;-58
2023/11/15 02:53:23;;;;;;;5.22;4.00;;;6.60;99.90;;;;;;5041611;28;20104;-57
2023/11/15 02:55:48;;;;;;;4.82;3.90;;;6.60;99.90;;;;;;5049087;28;20029;-54
2023/11/15 02:58:14;;;;;;;5.30;3.30;;;6.60;99.90;;;;;;5047477;28;20037;-55
2023/11/15 03:00:42;;;;;;;5.50;4.25;;;6.60;99.90;;;;;;5044583;28;20029;-56
2023/11/15 03:03:08;;;;;;;5.32;3.78;;;6.60;99.90;;;;;;5043130;28;20033;-56
2023/11/15 03:05:34;;;;;;;4.55;3.58;;;6.60;99.90;;;;;;5038459;28;20040;-57
2023/11/15 03:07:59;;;;;;;4.85;3.38;;;6.60;99.90;;;;;;5038591;28;20111;-57
2023/11/15 03:10:25;;;;;;;5.22;3.22;;;6.60;99.90;;;;;;5037794;28;20055;-53
2023/11/15 03:12:51;;;;;;;4.47;3.95;;;6.60;99.90;;;;;;5049306;28;20399;-53
2023/11/15 03:15:18;;;;;;;4.10;3.40;;;6.60;99.90;;;;;;5051750;28;20029;-57
2023/11/15 03:17:44;;;;;;;6.40;3.67;;;6.60;99.90;;;;;;5048101;28;20106;-56
2023/11/15 03:20:10;;;;;;;4.55;3.67;;;6.60;99.90;;;;;;5049382;28;20109;-57
2023/11/15 03:22:36;;;;;;;3.85;2.97;;;6.60;99.90;;;;;;5050202;28;20100;-57
2023/11/15 03:25:01;;;;;;;4.57;3.80;;;6.50;99.90;;;;;;5048396;28;20115;-56
2023/11/15 03:27:27;;;;;;;5.20;4.03;;;6.50;99.90;;;;;;5044401;28;20067;-54
2023/11/15 03:29:52;;;;;;;5.20;3.95;;;6.50;99.90;;;;;;5051075;28;20032;-56
2023/11/15 03:32:18;;;;;;;5.72;3.67;;;6.50;99.90;;;;;;5051244;28;20024;-57
2023/11/15 03:34:44;;;;;;;4.03;3.53;;;6.50;99.90;;;;;;5051765;28;20585;-55
2023/11/15 03:37:10;;;;;;;5.07;3.85;;;6.50;99.90;;;;;;5053268;28;20025;-54
2023/11/15 03:39:37;;;;;;;3.88;3.47;;;6.50;99.90;;;;;;5047100;28;20078;-56
2023/11/15 03:42:04;;;;;;;4.13;3.63;;;6.50;99.90;;;;;;5052663;28;20032;-58
2023/11/15 03:44:29;;;;;;;4.43;3.90;;;6.50;99.90;;;;;;5043555;28;21142;-58
2023/11/15 03:46:55;;;;;;;6.05;4.60;;;6.50;99.90;;;;;;5045679;28;20159;-57
2023/11/15 03:49:20;;;;;;;5.35;4.50;;;6.50;99.90;;;;;;5053868;28;20021;-55
2023/11/15 03:51:46;;;;;;;4.95;3.83;;;6.50;99.90;;;;;;5053970;28;20431;-56
2023/11/15 03:54:11;;;;;;;4.47;3.40;;;6.50;99.90;;;;;;5054470;28;20296;-56
2023/11/15 03:56:37;;;;;;;4.97;4.43;;;6.50;99.90;;;;;;5053530;28;20636;-57
2023/11/15 03:59:05;;;;;;;5.18;4.00;;;6.50;99.90;;;;;;5050541;28;20029;-59
2023/11/15 04:01:31;;;;;;;5.65;4.22;;;6.50;99.90;;;;;;5049662;28;20075;-58
2023/11/15 04:03:57;;;;;;;4.30;3.90;;;6.50;99.90;;;;;;5051917;28;20025;-58
2023/11/15 04:06:23;;;;;;;5.40;4.20;;;6.50;99.90;;;;;;5051012;28;20035;-58
2023/11/15 04:08:49;;;;;;;5.55;4.22;;;6.50;99.90;;;;;;5057484;28;20037;-58
2023/11/15 04:11:15;;;;;;;5.60;4.72;;;6.50;99.90;;;;;;5048276;28;20507;-58
2023/11/15 04:13:42;;;;;;;5.60;4.10;;;6.50;99.90;;;;;;5048438;28;20544;-56
2023/11/15 04:16:08;;;;;;;5.65;3.95;;;6.50;99.90;;;;;;5047361;28;20025;-56
2023/11/15 04:18:33;;;;;;;4.13;3.65;;;6.50;99.90;;;;;;5042251;28;20722;-58
2023/11/15 04:20:59;;;;;;;4.95;3.92;;;6.50;99.90;;;;;;5044022;28;20029;-58
2023/11/15 04:23:25;;;;;;;4.53;3.70;;;6.50;99.90;;;;;;5041049;28;20107;-58
2023/11/15 04:25:51;;;;;;;4.85;3.47;;;6.50;99.90;;;;;;5042844;28;20025;-57
2023/11/15 04:28:17;;;;;;;4.38;3.78;;;6.40;99.90;;;;;;5043801;28;20029;-55
2023/11/15 04:30:43;;;;;;;4.90;3.92;;;6.40;99.90;;;;;;5044754;28;20032;-58
2023/11/15 04:33:09;;;;;;;5.05;4.13;;;6.50;99.90;;;;;;5056388;28;20050;-55
2023/11/15 04:35:35;;;;;;;5.28;4.07;;;6.40;99.90;;;;;;5057142;28;20021;-56
2023/11/15 04:38:03;;;;;;;4.50;3.60;;;6.40;99.90;;;;;;5057437;28;20024;-58
2023/11/15 04:40:29;;;;;;;6.07;4.50;;;6.40;99.90;;;;;;5057936;28;20017;-53
2023/11/15 04:42:55;;;;;;;4.72;3.75;;;6.40;99.90;;;;;;5059305;28;20073;-54
2023/11/15 04:45:21;;;;;;;4.68;4.15;;;6.40;99.90;;;;;;5051407;28;20431;-55
2023/11/15 04:47:47;;;;;;;8.25;4.28;;;6.40;99.90;;;;;;5047492;28;20078;-57
2023/11/15 04:50:12;;;;;;;5.25;3.97;;;6.40;99.90;;;;;;5052764;28;20032;-54
2023/11/15 04:52:38;;;;;;;4.18;3.35;;;6.30;99.90;;;;;;5045986;28;20472;-55
2023/11/15 04:55:04;;;;;;;4.18;3.38;;;6.30;99.90;;;;;;5052001;28;20079;-59
2023/11/15 04:57:29;;;;;;;4.32;3.67;;;6.30;99.90;;;;;;5052832;28;20043;-57
2023/11/15 04:59:55;;;;;;;6.13;4.05;;;6.30;99.90;;;;;;5048356;28;20709;-57
2023/11/15 05:02:22;;;;;;;4.50;3.88;;;6.30;99.90;;;;;;5046961;28;20052;-55
2023/11/15 05:04:48;;;;;;;6.88;3.83;;;6.30;99.90;;;;;;5047259;28;20029;-56
2023/11/15 05:07:14;;;;;;;4.13;3.33;;;6.30;99.90;;;;;;5047271;28;20801;-55
2023/11/15 05:09:39;;;;;;;5.15;3.90;;;6.30;99.90;;;;;;5043569;28;20025;-56
2023/11/15 05:12:05;;;;;;;5.47;3.53;;;6.30;99.90;;;;;;5056545;28;20025;-54
2023/11/15 05:14:31;;;;;;;5.43;3.80;;;6.30;99.90;;;;;;5048805;28;20905;-55
2023/11/15 05:16:57;;;;;;;5.47;3.67;;;6.30;99.90;;;;;;5051160;28;20107;-55
2023/11/15 05:19:22;;;;;;;5.97;4.13;;;6.30;99.90;;;;;;5048721;28;20064;-54
2023/11/15 05:21:48;;;;;;;4.85;3.72;;;6.30;99.90;;;;;;5055718;28;20048;-57
2023/11/15 05:24:13;;;;;;;4.70;3.17;;;6.30;99.90;;;;;;5047371;28;20021;-56
2023/11/15 05:26:39;;;;;;;5.97;3.30;;;6.30;99.90;;;;;;5052278;28;20036;-57
2023/11/15 05:29:05;;;;;;;3.80;3.00;;;6.30;99.90;;;;;;5056078;22;20041;-49
2023/11/15 05:31:30;;;;;;;4.25;3.50;;;6.30;99.90;;;;;;5028257;28;20024;-51
2023/11/15 05:33:56;;;;;;;4.13;3.47;;;6.30;99.90;;;;;;5036270;28;20104;-49
2023/11/15 05:36:22;;;;;;;4.97;3.80;;;6.30;99.90;;;;;;5031305;28;20045;-50
2023/11/15 05:38:48;;;;;;;5.50;3.72;;;6.20;99.90;;;;;;5036505;28;20020;-51
2023/11/15 05:41:15;;;;;;;4.72;3.83;;;6.30;99.90;;;;;;5034107;28;20060;-50
2023/11/15 05:43:41;;;;;;;6.55;3.70;;;6.20;99.90;;;;;;5031182;28;20029;-51
2023/11/15 05:46:07;;;;;;;3.92;3.25;;;6.20;99.90;;;;;;5033876;28;20768;-49
2023/11/15 05:48:33;;;;;;;4.35;3.53;;;6.20;99.90;;;;;;5034484;28;20037;-49
2023/11/15 05:50:59;;;;;;;4.25;3.70;;;6.20;99.90;;;;;;5035422;28;20017;-52
2023/11/15 05:53:25;;;;;;;5.78;4.15;;;6.20;99.90;;;;;;5033529;28;20025;-51
2023/11/15 05:55:51;;;;;;;4.43;3.72;;;6.20;99.90;;;;;;5027835;28;20022;-48
2023/11/15 05:58:16;;;;;;;5.68;3.72;;;6.10;99.90;;;;;;5033475;28;20040;-48
2023/11/15 06:00:42;;;;;;;4.35;3.88;;;6.10;99.90;;;;;;5024393;28;20025;-50
2023/11/15 06:03:07;;;;;;;5.10;4.07;;;6.10;99.90;;;;;;5033651;28;20041;-51
2023/11/15 06:05:33;;;;;;;6.53;4.22;;;6.10;99.90;;;;;;5028500;28;20059;-53
2023/11/15 06:07:59;;;;;;;4.07;3.67;;;6.10;99.90;;;;;;5031381;28;20029;-51
2023/11/15 06:10:26;;;;;;;5.93;4.30;;;6.00;99.90;;;;;;5035847;28;20033;-50
2023/11/15 06:12:54;;;;;;;5.53;4.22;;;6.00;99.90;;;;;;5036469;28;20025;-52
2023/11/15 06:15:20;;;;;;;5.47;4.28;;;5.90;99.90;;;;;;5029966;28;20035;-48
2023/11/15 06:17:45;;;;;;;10.52;4.95;;;5.90;99.90;;;;;;5028143;28;20026;-51
2023/11/15 06:20:11;;;;;;;8.40;4.63;;;5.90;99.90;;;;;;5035129;28;20029;-52
2023/11/15 06:22:41;;;;;;;6.15;4.78;;;5.90;99.90;;;;;;5035377;28;20029;-47
2023/11/15 06:25:08;;;;;;;7.25;4.57;;;5.80;99.90;;;;;;5035594;28;20029;-47
2023/11/15 06:27:37;;;;;;;5.40;3.58;;;5.80;99.90;;;;;;5038837;28;20037;-51
2023/11/15 06:30:04;;;;;;;4.65;4.15;;;5.80;99.90;;;;;;5030566;28;20111;-51
2023/11/15 06:32:30;;;;;;;7.18;4.65;;;5.80;99.90;;;;;;5031278;28;20041;-49
2023/11/15 06:34:57;;;;;;;5.88;4.40;;;5.80;99.90;;;;;;5031034;28;20024;-50
2023/11/15 06:37:23;;;;;;;5.72;4.70;;;5.80;99.90;;;;;;5035861;28;20553;-50
2023/11/15 06:39:49;;;;;;;5.10;4.60;;;5.80;99.90;;;;;;5035885;28;20040;-52
2023/11/15 06:42:14;;;;;;;5.68;4.70;;;5.70;99.90;;;;;;5041868;28;20052;-51
2023/11/15 06:44:40;;;;;;;5.65;5.03;;;5.80;99.90;;;;;;5039364;28;20488;-50
2023/11/15 06:47:08;;;;;;;5.43;4.85;;;5.70;99.90;;;;;;5031981;28;20504;-51
2023/11/15 06:49:37;;;;;;;5.57;4.38;;;5.70;99.90;;;;;;5045763;28;20078;-51
2023/11/15 06:52:03;;;;;;;5.10;3.83;;;5.80;99.90;;;;;;5042479;28;20048;-47
2023/11/15 06:54:29;;;;;;;4.70;4.10;;;5.80;99.90;;;;;;5043649;28;20477;-50
2023/11/15 06:56:54;;;;;;;6.20;5.07;;;5.70;99.90;;;;;;5032862;28;20039;-52
2023/11/15 06:59:20;;;;;;;5.88;4.30;;;5.80;99.90;;;;;;5044669;28;20041;-51
2023/11/15 07:01:47;;;;;;;6.80;4.95;;;5.80;99.90;;;;;;5040376;28;20033;-49
2023/11/15 07:04:14;;;;;;;6.05;5.15;;;5.80;99.90;;;;;;5035766;28;20036;-48
2023/11/15 07:06:42;;;;;;;5.50;4.63;;;5.80;99.90;;;;;;5039584;28;20041;-52
2023/11/15 07:09:08;;;;;;;5.60;4.35;;;5.80;99.90;;;;;;5038991;28;20025;-50
2023/11/15 07:11:33;;;;;;;5.90;4.78;;;5.80;99.90;;;;;;5044109;28;20031;-50
2023/11/15 07:14:00;;;;;;;5.95;5.35;;;5.90;99.90;;;;;;5039489;28;20021;-53
2023/11/15 07:16:26;;;;;;;6.53;5.45;;;5.90;99.90;;;;;;5040785;28;20453;-47
2023/11/15 07:18:51;;;;;;;7.32;4.57;;;5.90;99.90;;;;;;5044804;28;20041;-47
2023/11/15 07:21:19;;;;;;;5.60;4.88;;;5.90;99.90;;;;;;5044268;28;20121;-50
2023/11/15 07:23:44;;;;;;;8.05;5.07;;;6.00;99.90;;;;;;5034678;28;20040;-49
2023/11/15 07:26:10;;;;;;;6.25;4.90;;;6.00;99.90;;;;;;5030289;28;20041;-47
2023/11/15 07:28:41;;;;;;;9.60;4.57;;;5.90;99.90;;;;;;5034307;28;20033;-50
2023/11/15 07:31:07;;;;;;;5.18;4.20;;;6.00;99.90;;;;;;5031718;28;20044;-50
2023/11/15 07:33:33;;;;;;;6.40;4.93;;;6.00;99.90;;;;;;5034201;28;20021;-48
2023/11/15 07:36:00;;;;;;;5.20;4.28;;;6.00;99.90;;;;;;5037446;28;20211;-51
2023/11/15 07:38:26;;;;;;;4.88;4.15;;;6.00;99.90;;;;;;5042686;28;20108;-49
2023/11/15 07:40:52;;;;;;;5.38;4.50;;;6.00;99.90;;;;;;5042412;28;20073;-52
2023/11/15 07:43:18;;;;;;;7.05;4.85;;;6.00;99.90;;;;;;5038797;28;20072;-52
2023/11/15 07:45:43;;;;;;;6.90;5.05;;;6.00;99.90;;;;;;5035571;28;20030;-51
2023/11/15 07:48:10;;;;;;;5.80;4.50;;;6.00;99.90;;;;;;5040769;28;20021;-50
2023/11/15 07:50:36;;;;;;;7.60;4.88;;;6.00;99.90;;;;;;5046019;28;20043;-47
2023/11/15 07:53:02;;;;;;;5.28;4.50;;;6.00;99.90;;;;;;5042664;28;20017;-50
2023/11/15 07:55:28;;;;;;;5.75;4.40;;;6.10;99.90;;;;;;5040661;28;20033;-48
2023/11/15 07:57:53;;;;;;;5.55;4.40;;;6.10;99.90;;;;;;5040719;28;20499;-51
2023/11/15 08:00:25;;;;;;;5.55;4.57;;;6.10;99.90;;;;;;5043248;28;20029;-48
2023/11/15 08:02:51;;;;;;;5.55;4.55;;;6.10;99.90;;;;;;5038895;28;20017;-51
2023/11/15 08:05:18;;;;;;;5.50;4.18;;;6.10;99.90;;;;;;5041502;28;20579;-51
2023/11/15 08:07:45;;;;;;;5.65;4.05;;;6.20;99.90;;;;;;5037658;28;20130;-48
2023/11/15 08:10:13;;;;;;;5.10;3.85;;;6.20;99.90;;;;;;5037943;28;20121;-50
2023/11/15 08:12:39;;;;;;;7.72;3.42;;;6.20;99.90;;;;;;5030969;28;20025;-48
2023/11/15 08:15:05;;;;;;;5.65;3.55;;;6.30;99.90;;;;;;5034083;28;20044;-49
2023/11/15 08:17:31;;;;;;;4.25;3.60;;;6.30;99.90;;;;;;5038128;28;20516;-48
2023/11/15 08:19:57;;;;;;;7.32;3.88;;;6.30;99.90;;;;;;5037380;28;20033;-48
2023/11/15 08:22:23;;;;;;;6.90;3.90;;;6.30;99.90;;;;;;5036073;28;20037;-49
2023/11/15 08:24:49;;;;;;;3.92;3.53;;;6.40;99.90;;;;;;5037213;28;20032;-56
2023/11/15 08:27:15;;;;;;;7.15;2.78;;;6.40;99.90;;;;;;5034723;28;20096;-49
2023/11/15 08:29:41;;;;;;;4.30;3.10;;;6.40;99.90;;;;;;5037447;28;20025;-48
2023/11/15 08:32:09;;;;;;;4.32;2.97;;;6.40;99.90;;;;;;5036943;28;20536;-48
2023/11/15 08:34:35;;;;;;;4.88;3.08;;;6.40;99.90;;;;;;5034668;28;20048;-51
2023/11/15 08:37:04;;;;;;;4.75;2.53;;;6.40;99.90;;;;;;5036063;28;20021;-47
2023/11/15 08:39:31;;;;;;;3.92;2.70;;;6.40;99.90;;;;;;5032463;28;20018;-47
2023/11/15 08:41:57;;;;;;;5.25;3.45;;;6.50;99.90;;;;;;5029086;28;20021;-51
2023/11/15 08:44:23;;;;;;;5.18;3.33;;;6.50;99.90;;;;;;5031941;28;20409;-50
2023/11/15 08:46:50;;;;;;;3.15;2.55;;;6.60;99.90;;;;;;5027487;28;20029;-48
2023/11/15 08:49:15;;;;;;;5.88;3.33;;;6.60;99.90;;;;;;5032912;28;20437;-50
2023/11/15 08:51:47;;;;;;;3.10;2.72;;;6.60;99.90;;;;;;5037690;28;20034;-51
2023/11/15 08:54:13;;;;;;;2.92;2.63;;;6.60;99.90;;;;;;5030200;28;20026;-49
2023/11/15 08:56:40;;;;;;;2.55;2.35;;;6.60;99.90;;;;;;5037265;28;20090;-49
2023/11/15 08:59:11;;;;;;;4.93;2.67;;;6.70;99.90;;;;;;5034797;28;20753;-50
2023/11/15 09:01:38;;;;;;;4.53;2.10;;;6.70;99.90;;;;;;5031638;28;20033;-51
2023/11/15 09:04:05;;;;;;;3.75;2.47;;;6.70;99.90;;;;;;5036305;28;20021;-49
2023/11/15 09:06:31;;;;;;;3.45;2.80;;;6.70;99.90;;;;;;5031545;28;20037;-50
2023/11/15 09:08:57;;;;;;;4.00;2.60;;;6.70;99.90;;;;;;5035736;28;20045;-49
2023/11/15 09:11:23;;;;;;;3.30;2.40;;;6.80;99.90;;;;;;5032853;28;20057;-51
2023/11/15 09:13:48;;;;;;;2.75;2.22;;;6.80;99.90;;;;;;5034315;28;20032;-46
2023/11/15 09:16:14;;;;;;;2.55;1.88;;;7.00;99.90;;;;;;5036241;28;20084;-50
2023/11/15 09:18:42;;;;;;;4.15;2.67;;;7.00;99.90;;;;;;5041133;28;20112;-51
2023/11/15 09:21:08;;;;;;;2.38;2.13;;;7.10;99.90;;;;;;5035960;28;20079;-48
2023/11/15 09:23:36;;;;;;;4.82;2.58;;;7.20;99.90;;;;;;5030402;28;20029;-50
2023/11/15 09:26:02;;;;;;;2.30;2.10;;;7.20;99.90;;;;;;5026324;28;20025;-48
2023/11/15 09:28:28;;;;;;;2.97;2.25;;;7.20;99.90;;;;;;5033104;28;20099;-52
2023/11/15 09:30:53;;;;;;;3.17;2.22;;;7.20;99.90;;;;;;5034346;28;20025;-52
2023/11/15 09:33:20;;;;;;;2.60;2.08;;;7.30;99.90;;;;;;5035614;28;20032;-52
2023/11/15 09:35:46;;;;;;;3.15;2.72;;;7.30;99.90;;;;;;5036466;28;20108;-47
2023/11/15 09:38:13;;;;;;;5.90;2.80;;;7.30;99.90;;;;;;5035217;28;20017;-48
2023/11/15 09:40:41;;;;;;;2.80;2.25;;;7.40;99.90;;;;;;5037253;28;20033;-55
2023/11/15 09:43:08;;;;;;;2.13;1.90;;;7.40;99.90;;;;;;5036228;28;20036;-51
2023/11/15 09:45:41;;;;;;;2.40;2.20;;;7.50;99.90;;;;;;5036476;28;20021;-50
2023/11/15 09:48:09;;;;;;;3.47;2.60;;;7.50;99.90;;;;;;5033438;28;20037;-52
2023/11/15 09:50:36;;;;;;;16.88;6.22;;;7.60;99.90;;;;;;5036976;28;20025;-52
2023/11/15 09:53:08;;;;;;;5.80;2.15;;;7.60;99.90;;;;;;5033409;28;20021;-47
2023/11/15 09:55:33;;;;;;;3.22;2.42;;;7.70;99.90;;;;;;5039952;28;20021;-52
2023/11/15 09:57:59;;;;;;;3.58;2.10;;;7.70;99.90;;;;;;5036110;28;20032;-52
2023/11/15 10:00:29;;;;;;;3.00;1.65;;;7.60;99.90;;;;;;5036945;28;20040;-51
2023/11/15 10:02:56;;;;;;;2.65;2.05;;;7.50;99.90;;;;;;5038746;28;20412;-48
2023/11/15 10:05:28;;;;;;;2.75;1.75;;;7.50;99.90;;;;;;5038274;28;20030;-48
2023/11/15 10:08:11;;;;;;;2.30;2.05;;;7.40;99.90;;;;;;5035782;28;20021;-50
2023/11/15 10:10:38;;;;;;;2.88;2.08;;;7.40;99.90;;;;;;5030135;28;20640;-50
2023/11/15 10:13:12;;;;;;;2.60;2.00;;;7.30;99.90;;;;;;5038509;28;20017;-50
2023/11/15 10:15:39;;;;;;;2.13;1.92;;;7.30;99.90;;;;;;5034877;28;20030;-48
2023/11/15 10:18:08;;;;;;;2.85;2.08;;;7.30;99.90;;;;;;5035145;28;20024;-51
2023/11/15 10:20:35;;;;;;;3.33;1.85;;;7.30;99.90;;;;;;5035763;28;20022;-51
2023/11/15 10:23:01;;;;;;;2.05;1.80;;;7.30;99.90;;;;;;5035778;28;20013;-49
2023/11/15 10:25:27;;;;;;;2.40;1.92;;;7.30;99.90;;;;;;5038175;28;20644;-50
2023/11/15 10:28:04;;;;;;;2.67;2.22;;;7.30;99.90;;;;;;5037363;28;20034;-52
2023/11/15 10:30:30;;;;;;;1.80;1.50;;;7.30;99.90;;;;;;5036634;28;20025;-48
2023/11/15 10:33:10;;;;;;;1.88;1.70;;;7.30;99.90;;;;;;5039814;28;20556;-49
2023/11/15 10:35:36;;;;;;;2.33;1.80;;;7.30;99.90;;;;;;5038836;28;20026;-48
2023/11/15 10:38:02;;;;;;;2.28;2.00;;;7.40;99.90;;;;;;5039254;28;20061;-46
2023/11/15 10:40:30;;;;;;;2.15;1.30;;;7.40;99.90;;;;;;5036437;28;20115;-47
2023/11/15 10:42:58;;;;;;;1.95;1.50;;;7.50;99.90;;;;;;5041307;28;20021;-46
2023/11/15 10:45:27;;;;;;;3.15;1.52;;;7.50;99.90;;;;;;5037258;28;20029;-48
2023/11/15 10:47:57;;;;;;;1.77;1.23;;;7.50;99.90;;;;;;5040781;28;20029;-49
2023/11/15 10:50:27;;;;;;;1.30;1.15;;;7.50;99.90;;;;;;5038299;28;20035;-51
2023/11/15 10:52:53;;;;;;;1.77;1.60;;;7.50;99.90;;;;;;5040252;28;20083;-49
2023/11/15 10:55:20;;;;;;;3.42;1.05;;;7.60;99.90;;;;;;5035208;28;20026;-53
2023/11/15 10:57:48;;;;;;;6.32;1.00;;;7.60;99.90;;;;;;5036176;28;20025;-50
2023/11/15 11:00:18;;;;;;;1.67;1.10;;;7.70;99.90;;;;;;5034927;28;20064;-54
2023/11/15 11:02:44;;;;;;;1.45;1.33;;;7.70;99.90;;;;;;5036266;28;21401;-51
2023/11/15 11:05:16;;;;;;;1.73;1.45;;;7.70;99.90;;;;;;5035464;28;20029;-47
2023/11/15 11:07:57;;;;;;;1.98;1.77;;;7.70;99.90;;;;;;5036938;28;20124;-51
2023/11/15 11:10:42;;;;;;;2.70;1.67;;;7.80;99.90;;;;;;5034286;28;20468;-47
2023/11/15 11:13:23;;;;;;;3.10;1.70;;;7.80;99.90;;;;;;5035780;28;20496;-48
2023/11/15 11:15:49;;;;;;;1.73;1.50;;;7.80;99.90;;;;;;5035638;28;20021;-46
2023/11/15 11:18:18;;;;;;;1.70;1.60;;;7.90;99.90;;;;;;5035880;28;20017;-50
2023/11/15 11:21:01;;;;;;;1.63;1.30;;;7.90;99.90;;;;;;5038758;28;20053;-50
2023/11/15 11:23:29;;;;;;;1.10;0.98;;;7.90;99.90;;;;;;5031676;28;20041;-49
2023/11/15 11:26:34;;;;;;;1.52;1.17;;;7.90;99.90;;;;;;5038735;28;20029;-51
2023/11/15 11:29:03;;;;;;;1.25;0.93;;;7.90;99.90;;;;;;5038899;22;20787;-80
2023/11/15 11:31:30;;;;;;;1.75;0.93;;;7.90;99.90;;;;;;5038751;28;20037;-78
2023/11/15 11:34:08;;;;;;;1.10;1.00;;;7.80;99.90;;;;;;5021576;28;20168;-79
2023/11/15 11:36:50;;;;;;;1.08;0.98;;;7.90;99.90;;;;;;5036909;28;20406;-79
2023/11/15 11:39:42;;;;;;;1.08;0.90;;;7.80;99.90;;;;;;5031228;28;20074;-80
2023/11/15 11:42:23;;;;;;;4.00;1.00;;;7.80;99.90;;;;;;5032850;28;20535;-79
2023/11/15 11:44:54;;;;;;;2.00;0.80;;;7.80;99.90;;;;;;5032041;28;20474;-79
2023/11/15 11:47:21;;;;;;;2.72;1.20;;;7.70;99.90;;;;;;5015906;28;20068;-81
2023/11/15 11:49:48;;;;;;;1.13;0.75;;;7.80;99.90;;;;;;5011855;28;20025;-80
2023/11/15 11:52:17;;;;;;;0.85;0.80;;;7.80;99.90;;;;;;5011341;28;20025;-80
2023/11/15 11:54:52;;;;;;;1.88;0.60;;;7.80;99.90;;;;;;5013597;28;20493;-80
2023/11/15 11:57:25;;;;;;;0.60;0.60;;;7.80;99.90;;;;;;5010671;28;20025;-82
2023/11/15 12:00:11;;;;;;;0.73;0.70;;;7.80;99.90;;;;;;5010103;28;20033;-81
2023/11/15 12:02:38;;;;;;;1.35;1.00;;;7.80;99.90;;;;;;5034212;28;20033;-80
2023/11/15 12:05:05;;;;;;;1.00;0.68;;;7.80;99.90;;;;;;5013779;28;20023;-79
2023/11/15 12:07:31;;;;;;;1.10;0.90;;;7.80;99.90;;;;;;5013029;28;20026;-81
2023/11/15 12:10:05;;;;;;;2.03;1.13;;;7.80;99.90;;;;;;5014507;28;20024;-80
2023/11/15 12:12:31;;;;;;;2.30;0.73;;;7.90;99.90;;;;;;5012566;28;20018;-81
2023/11/15 12:14:59;;;;;;;1.63;1.00;;;7.90;99.90;;;;;;5013775;28;20036;-80
2023/11/15 12:17:39;;;;;;;0.80;0.70;;;8.00;99.90;;;;;;5011478;28;20045;-81
2023/11/15 12:20:08;;;;;;;1.08;0.80;;;8.00;99.90;;;;;;5013683;28;20021;-82
2023/11/15 12:22:36;;;;;;;4.10;2.20;;;8.00;99.90;;;;;;5013919;28;20083;-82
2023/11/15 12:25:03;;;;;;;0.73;0.70;;;8.10;99.90;;;;;;5013727;28;20018;-80
2023/11/15 12:27:31;;;;;;;0.70;0.70;;;8.10;99.90;;;;;;5013338;28;20430;-80
2023/11/15 12:29:57;;;;;;;0.90;0.90;;;8.20;99.90;;;;;;5032603;28;20501;-80
2023/11/15 12:32:23;;;;;;;0.75;0.75;;;8.20;99.90;;;;;;5011408;28;20018;-80
2023/11/15 12:34:48;;;;;;;1.58;1.25;;;8.30;99.90;;;;;;5029143;28;20026;-80
2023/11/15 12:37:14;;;;;;;1.98;0.63;;;8.30;99.90;;;;;;5030299;28;20473;-80
2023/11/15 12:39:40;;;;;;;2.47;0.73;;;8.30;99.90;;;;;;5028377;28;20029;-80
2023/11/15 12:42:06;;;;;;;1.05;0.95;;;8.40;99.90;;;;;;5012246;28;20153;-79
2023/11/15 12:44:45;;;;;;;1.40;1.30;;;8.40;99.90;;;;;;5027539;28;20037;-80
2023/11/15 12:47:12;;;;;;;2.20;1.83;;;8.50;99.90;;;;;;5011043;28;20026;-80
2023/11/15 12:49:39;;;;;;;2.70;1.98;;;8.60;99.90;;;;;;5030194;28;20025;-79
2023/11/15 12:52:05;;;;;;;2.13;1.77;;;8.60;99.90;;;;;;5032073;28;20080;-80
2023/11/15 12:54:30;;;;;;;1.77;1.67;;;8.60;99.90;;;;;;5015163;28;20604;-80
2023/11/15 12:57:03;;;;;;;2.80;1.60;;;8.60;99.90;;;;;;5031733;28;20109;-80